Main page
METAR-TAF:

METAR-TAF

Airports :

South St. Paul Municipal Airport (Richard E. Fleming Field)

South St. Paul, Minnesota, United States

latitude: 44-51-26N, longitude: 093-01-58W, elevation: 820 ft

Current weather observation

The report was made 11 minutes ago, at 22:15 UTC
Wind 9 mph from the Southwest
Temperature 66°F
Humidity 37%
Pressure 29.60 in. Hg
Visibility: 10 miles
Broken clouds at a height of 7000 ft
Broken clouds at a height of 10000 ft

METAR: KSGS 222215Z AUTO 22008KT 10SM BKN070 BKN100 19/04 A2960 RMK AO2 T01900036

Time: 17:26 (22:26 UTC)


TAF: missing

Weather observations and forecasts of more than 4000 airports (METAR and TAF reports).

The available stations are represented by yellow and red dots on the map.

Hover mouse over dot to see the name of the station.

Then click to see weather observations and forecasts.

To change the map : click on the green buttons with a black cross to zoom in, on the green button with a dash to zoom out, or on the green arrows for adjacent maps.


METAR-TAF: